sensor_id;sensor_type;location;lat;lon;timestamp;P1;durP1;ratioP1;P2;durP2;ratioP2
23506;SDS011;11930;53.076;18.250;2022-09-09T00:00:20;11.53;;;5.93;;
23506;SDS011;11930;53.076;18.250;2022-09-09T00:05:55;13.00;;;6.40;;
23506;SDS011;11930;53.076;18.250;2022-09-09T00:08:25;12.63;;;7.07;;
23506;SDS011;11930;53.076;18.250;2022-09-09T00:11:07;15.13;;;6.60;;
23506;SDS011;11930;53.076;18.250;2022-09-09T00:13:39;8.37;;;6.03;;
23506;SDS011;11930;53.076;18.250;2022-09-09T00:16:17;11.77;;;7.30;;
23506;SDS011;11930;53.076;18.250;2022-09-09T00:18:56;11.47;;;6.40;;
23506;SDS011;11930;53.076;18.250;2022-09-09T00:21:33;10.80;;;6.80;;
23506;SDS011;11930;53.076;18.250;2022-09-09T00:24:01;11.70;;;7.03;;
23506;SDS011;11930;53.076;18.250;2022-09-09T00:26:45;11.63;;;6.93;;
23506;SDS011;11930;53.076;18.250;2022-09-09T00:29:33;9.97;;;6.90;;
23506;SDS011;11930;53.076;18.250;2022-09-09T00:32:15;11.33;;;7.00;;
23506;SDS011;11930;53.076;18.250;2022-09-09T00:34:47;11.90;;;7.07;;
23506;SDS011;11930;53.076;18.250;2022-09-09T00:37:19;11.30;;;7.27;;
23506;SDS011;11930;53.076;18.250;2022-09-09T00:39:48;14.27;;;7.30;;
23506;SDS011;11930;53.076;18.250;2022-09-09T00:45:01;10.83;;;7.33;;
23506;SDS011;11930;53.076;18.250;2022-09-09T00:47:50;12.83;;;7.20;;
23506;SDS011;11930;53.076;18.250;2022-09-09T00:58:31;10.27;;;7.00;;
23506;SDS011;11930;53.076;18.250;2022-09-09T01:01:04;13.27;;;7.87;;
23506;SDS011;11930;53.076;18.250;2022-09-09T01:03:38;11.83;;;7.77;;
23506;SDS011;11930;53.076;18.250;2022-09-09T01:12:03;14.50;;;7.37;;
23506;SDS011;11930;53.076;18.250;2022-09-09T01:14:54;13.63;;;7.30;;
23506;SDS011;11930;53.076;18.250;2022-09-09T01:17:33;11.50;;;6.80;;
23506;SDS011;11930;53.076;18.250;2022-09-09T01:28:40;12.40;;;7.40;;
23506;SDS011;11930;53.076;18.250;2022-09-09T01:31:14;11.37;;;7.57;;
23506;SDS011;11930;53.076;18.250;2022-09-09T01:33:52;12.87;;;7.73;;
23506;SDS011;11930;53.076;18.250;2022-09-09T01:36:21;13.63;;;8.40;;
23506;SDS011;11930;53.076;18.250;2022-09-09T01:39:04;19.40;;;8.53;;
23506;SDS011;11930;53.076;18.250;2022-09-09T01:41:32;13.17;;;8.63;;
23506;SDS011;11930;53.076;18.250;2022-09-09T01:44:02;15.67;;;8.30;;
23506;SDS011;11930;53.076;18.250;2022-09-09T01:46:30;12.73;;;7.43;;
23506;SDS011;11930;53.076;18.250;2022-09-09T01:48:58;14.83;;;7.97;;
23506;SDS011;11930;53.076;18.250;2022-09-09T01:51:27;12.80;;;7.70;;
23506;SDS011;11930;53.076;18.250;2022-09-09T01:53:54;13.00;;;7.27;;
23506;SDS011;11930;53.076;18.250;2022-09-09T01:56:34;12.00;;;7.60;;
23506;SDS011;11930;53.076;18.250;2022-09-09T02:05:06;13.33;;;7.93;;
23506;SDS011;11930;53.076;18.250;2022-09-09T02:08:10;12.10;;;8.17;;
23506;SDS011;11930;53.076;18.250;2022-09-09T02:10:59;11.67;;;7.50;;
23506;SDS011;11930;53.076;18.250;2022-09-09T02:13:39;12.87;;;8.30;;
23506;SDS011;11930;53.076;18.250;2022-09-09T02:16:12;11.00;;;7.83;;
23506;SDS011;11930;53.076;18.250;2022-09-09T02:21:08;12.63;;;7.90;;
23506;SDS011;11930;53.076;18.250;2022-09-09T02:23:37;10.77;;;7.43;;
23506;SDS011;11930;53.076;18.250;2022-09-09T02:26:08;11.63;;;8.27;;
23506;SDS011;11930;53.076;18.250;2022-09-09T02:28:39;12.70;;;8.27;;
23506;SDS011;11930;53.076;18.250;2022-09-09T02:31:07;11.33;;;7.50;;
23506;SDS011;11930;53.076;18.250;2022-09-09T02:33:43;11.27;;;8.17;;
23506;SDS011;11930;53.076;18.250;2022-09-09T02:36:13;10.00;;;7.87;;
23506;SDS011;11930;53.076;18.250;2022-09-09T02:38:45;13.33;;;8.53;;
23506;SDS011;11930;53.076;18.250;2022-09-09T02:41:20;12.77;;;8.33;;
23506;SDS011;11930;53.076;18.250;2022-09-09T02:43:51;13.50;;;7.63;;
23506;SDS011;11930;53.076;18.250;2022-09-09T02:49:10;11.23;;;7.50;;
23506;SDS011;11930;53.076;18.250;2022-09-09T02:57:01;14.27;;;8.03;;
23506;SDS011;11930;53.076;18.250;2022-09-09T02:59:36;11.83;;;8.07;;
23506;SDS011;11930;53.076;18.250;2022-09-09T03:02:03;11.20;;;8.03;;
23506;SDS011;11930;53.076;18.250;2022-09-09T03:04:30;12.67;;;8.37;;
23506;SDS011;11930;53.076;18.250;2022-09-09T03:06:57;13.23;;;7.57;;
23506;SDS011;11930;53.076;18.250;2022-09-09T03:09:24;11.70;;;8.40;;
23506;SDS011;11930;53.076;18.250;2022-09-09T03:11:52;12.23;;;8.27;;
23506;SDS011;11930;53.076;18.250;2022-09-09T03:14:21;12.60;;;7.90;;
23506;SDS011;11930;53.076;18.250;2022-09-09T03:16:50;11.03;;;8.30;;
23506;SDS011;11930;53.076;18.250;2022-09-09T03:19:18;11.77;;;8.60;;
23506;SDS011;11930;53.076;18.250;2022-09-09T03:21:45;12.37;;;8.70;;
23506;SDS011;11930;53.076;18.250;2022-09-09T03:24:12;13.90;;;8.47;;
23506;SDS011;11930;53.076;18.250;2022-09-09T03:26:40;11.87;;;8.43;;
23506;SDS011;11930;53.076;18.250;2022-09-09T03:29:12;11.00;;;8.67;;
23506;SDS011;11930;53.076;18.250;2022-09-09T03:31:39;11.57;;;9.03;;
23506;SDS011;11930;53.076;18.250;2022-09-09T03:34:06;12.50;;;8.83;;
23506;SDS011;11930;53.076;18.250;2022-09-09T03:36:34;10.70;;;8.40;;
23506;SDS011;11930;53.076;18.250;2022-09-09T03:39:01;10.87;;;8.73;;
23506;SDS011;11930;53.076;18.250;2022-09-09T03:41:30;12.23;;;9.47;;
23506;SDS011;11930;53.076;18.250;2022-09-09T03:43:58;12.40;;;10.17;;
23506;SDS011;11930;53.076;18.250;2022-09-09T03:46:26;13.93;;;10.60;;
23506;SDS011;11930;53.076;18.250;2022-09-09T03:48:52;14.60;;;11.80;;
23506;SDS011;11930;53.076;18.250;2022-09-09T03:51:19;14.93;;;10.90;;
23506;SDS011;11930;53.076;18.250;2022-09-09T03:53:47;15.93;;;11.80;;
23506;SDS011;11930;53.076;18.250;2022-09-09T03:56:13;14.73;;;11.70;;
23506;SDS011;11930;53.076;18.250;2022-09-09T03:58:40;18.07;;;11.87;;
23506;SDS011;11930;53.076;18.250;2022-09-09T04:01:08;18.30;;;13.10;;
23506;SDS011;11930;53.076;18.250;2022-09-09T04:03:39;16.93;;;12.57;;
23506;SDS011;11930;53.076;18.250;2022-09-09T04:06:07;17.43;;;12.90;;
23506;SDS011;11930;53.076;18.250;2022-09-09T04:08:35;18.23;;;13.53;;
23506;SDS011;11930;53.076;18.250;2022-09-09T04:11:01;19.57;;;13.53;;
23506;SDS011;11930;53.076;18.250;2022-09-09T04:13:31;21.00;;;13.77;;
23506;SDS011;11930;53.076;18.250;2022-09-09T04:16:01;18.07;;;13.70;;
23506;SDS011;11930;53.076;18.250;2022-09-09T04:18:29;19.47;;;14.40;;
23506;SDS011;11930;53.076;18.250;2022-09-09T04:20:56;20.10;;;13.90;;
23506;SDS011;11930;53.076;18.250;2022-09-09T04:23:25;19.63;;;14.97;;
23506;SDS011;11930;53.076;18.250;2022-09-09T04:25:56;20.43;;;14.87;;
23506;SDS011;11930;53.076;18.250;2022-09-09T04:28:25;20.50;;;15.37;;
23506;SDS011;11930;53.076;18.250;2022-09-09T04:30:57;18.70;;;14.50;;
23506;SDS011;11930;53.076;18.250;2022-09-09T04:33:33;19.27;;;15.10;;
23506;SDS011;11930;53.076;18.250;2022-09-09T04:36:00;22.33;;;15.87;;
23506;SDS011;11930;53.076;18.250;2022-09-09T04:38:26;24.00;;;15.80;;
23506;SDS011;11930;53.076;18.250;2022-09-09T04:40:54;19.33;;;15.10;;
23506;SDS011;11930;53.076;18.250;2022-09-09T04:43:21;21.37;;;15.43;;
23506;SDS011;11930;53.076;18.250;2022-09-09T04:45:49;22.63;;;16.10;;
23506;SDS011;11930;53.076;18.250;2022-09-09T04:48:17;21.00;;;15.77;;
23506;SDS011;11930;53.076;18.250;2022-09-09T04:50:43;22.00;;;16.87;;
23506;SDS011;11930;53.076;18.250;2022-09-09T04:53:11;24.90;;;17.83;;
23506;SDS011;11930;53.076;18.250;2022-09-09T04:55:38;22.57;;;16.80;;
23506;SDS011;11930;53.076;18.250;2022-09-09T04:58:05;22.87;;;17.10;;
23506;SDS011;11930;53.076;18.250;2022-09-09T05:00:33;22.03;;;17.23;;
23506;SDS011;11930;53.076;18.250;2022-09-09T05:03:06;24.90;;;18.00;;
23506;SDS011;11930;53.076;18.250;2022-09-09T05:05:34;25.80;;;18.53;;
23506;SDS011;11930;53.076;18.250;2022-09-09T05:08:02;25.30;;;17.73;;
23506;SDS011;11930;53.076;18.250;2022-09-09T05:10:29;24.33;;;18.50;;
23506;SDS011;11930;53.076;18.250;2022-09-09T05:12:55;24.07;;;18.40;;
23506;SDS011;11930;53.076;18.250;2022-09-09T05:15:24;25.83;;;17.90;;
23506;SDS011;11930;53.076;18.250;2022-09-09T05:17:51;27.97;;;17.57;;
23506;SDS011;11930;53.076;18.250;2022-09-09T05:20:20;25.57;;;17.80;;
23506;SDS011;11930;53.076;18.250;2022-09-09T05:22:47;25.13;;;18.23;;
23506;SDS011;11930;53.076;18.250;2022-09-09T05:25:14;26.63;;;18.43;;
23506;SDS011;11930;53.076;18.250;2022-09-09T05:27:40;28.13;;;18.07;;
23506;SDS011;11930;53.076;18.250;2022-09-09T05:30:06;28.03;;;18.90;;
23506;SDS011;11930;53.076;18.250;2022-09-09T05:32:34;28.40;;;20.23;;
23506;SDS011;11930;53.076;18.250;2022-09-09T05:35:00;26.90;;;18.47;;
23506;SDS011;11930;53.076;18.250;2022-09-09T05:37:27;26.43;;;17.93;;
23506;SDS011;11930;53.076;18.250;2022-09-09T05:39:54;29.13;;;19.33;;
23506;SDS011;11930;53.076;18.250;2022-09-09T05:42:20;24.50;;;18.60;;
23506;SDS011;11930;53.076;18.250;2022-09-09T05:44:46;28.07;;;18.37;;
23506;SDS011;11930;53.076;18.250;2022-09-09T05:47:12;29.17;;;19.30;;
23506;SDS011;11930;53.076;18.250;2022-09-09T05:49:38;28.47;;;19.47;;
23506;SDS011;11930;53.076;18.250;2022-09-09T05:52:04;31.40;;;19.80;;
23506;SDS011;11930;53.076;18.250;2022-09-09T05:54:30;29.47;;;19.30;;
23506;SDS011;11930;53.076;18.250;2022-09-09T05:56:58;31.90;;;19.23;;
23506;SDS011;11930;53.076;18.250;2022-09-09T05:59:24;30.90;;;18.20;;
23506;SDS011;11930;53.076;18.250;2022-09-09T06:01:53;27.77;;;18.17;;
23506;SDS011;11930;53.076;18.250;2022-09-09T06:04:31;29.67;;;18.40;;
23506;SDS011;11930;53.076;18.250;2022-09-09T06:06:59;31.53;;;18.70;;
23506;SDS011;11930;53.076;18.250;2022-09-09T06:09:26;27.17;;;17.77;;
23506;SDS011;11930;53.076;18.250;2022-09-09T06:11:52;30.33;;;17.47;;
23506;SDS011;11930;53.076;18.250;2022-09-09T06:14:21;32.33;;;18.10;;
23506;SDS011;11930;53.076;18.250;2022-09-09T06:16:49;30.70;;;18.63;;
23506;SDS011;11930;53.076;18.250;2022-09-09T06:19:21;32.70;;;17.97;;
23506;SDS011;11930;53.076;18.250;2022-09-09T06:21:48;33.90;;;18.77;;
23506;SDS011;11930;53.076;18.250;2022-09-09T06:24:15;31.77;;;18.57;;
23506;SDS011;11930;53.076;18.250;2022-09-09T06:26:43;29.87;;;18.07;;
23506;SDS011;11930;53.076;18.250;2022-09-09T06:29:13;30.40;;;17.80;;
23506;SDS011;11930;53.076;18.250;2022-09-09T06:31:41;31.80;;;17.90;;
23506;SDS011;11930;53.076;18.250;2022-09-09T06:34:13;32.63;;;18.10;;
23506;SDS011;11930;53.076;18.250;2022-09-09T06:36:43;30.25;;;17.20;;
23506;SDS011;11930;53.076;18.250;2022-09-09T06:39:11;31.07;;;16.67;;
23506;SDS011;11930;53.076;18.250;2022-09-09T06:41:38;36.40;;;17.27;;
23506;SDS011;11930;53.076;18.250;2022-09-09T06:44:08;29.95;;;17.08;;
23506;SDS011;11930;53.076;18.250;2022-09-09T06:46:40;32.40;;;16.63;;
23506;SDS011;11930;53.076;18.250;2022-09-09T06:49:08;29.27;;;16.30;;
23506;SDS011;11930;53.076;18.250;2022-09-09T06:51:35;33.50;;;17.23;;
23506;SDS011;11930;53.076;18.250;2022-09-09T06:54:08;27.50;;;16.08;;
23506;SDS011;11930;53.076;18.250;2022-09-09T06:56:36;27.83;;;15.25;;
23506;SDS011;11930;53.076;18.250;2022-09-09T06:59:10;32.63;;;16.80;;
23506;SDS011;11930;53.076;18.250;2022-09-09T07:01:38;26.33;;;15.43;;
23506;SDS011;11930;53.076;18.250;2022-09-09T07:04:17;28.03;;;15.57;;
23506;SDS011;11930;53.076;18.250;2022-09-09T07:06:45;34.07;;;16.73;;
23506;SDS011;11930;53.076;18.250;2022-09-09T07:09:18;30.17;;;17.43;;
23506;SDS011;11930;53.076;18.250;2022-09-09T07:11:48;29.20;;;16.50;;
23506;SDS011;11930;53.076;18.250;2022-09-09T07:14:18;28.90;;;16.03;;
23506;SDS011;11930;53.076;18.250;2022-09-09T07:16:49;31.03;;;17.30;;
23506;SDS011;11930;53.076;18.250;2022-09-09T07:19:17;38.33;;;17.53;;
23506;SDS011;11930;53.076;18.250;2022-09-09T07:21:44;31.88;;;17.17;;
23506;SDS011;11930;53.076;18.250;2022-09-09T07:24:13;31.93;;;16.87;;
23506;SDS011;11930;53.076;18.250;2022-09-09T07:26:41;32.15;;;17.27;;
23506;SDS011;11930;53.076;18.250;2022-09-09T07:29:19;35.33;;;17.75;;
23506;SDS011;11930;53.076;18.250;2022-09-09T07:31:45;33.47;;;17.83;;
23506;SDS011;11930;53.076;18.250;2022-09-09T07:34:16;35.38;;;18.17;;
23506;SDS011;11930;53.076;18.250;2022-09-09T07:36:43;39.55;;;17.90;;
23506;SDS011;11930;53.076;18.250;2022-09-09T07:39:12;33.17;;;17.13;;
23506;SDS011;11930;53.076;18.250;2022-09-09T07:41:45;33.90;;;17.60;;
23506;SDS011;11930;53.076;18.250;2022-09-09T07:44:19;33.93;;;17.43;;
23506;SDS011;11930;53.076;18.250;2022-09-09T07:48:04;31.48;;;17.42;;
23506;SDS011;11930;53.076;18.250;2022-09-09T07:50:31;40.03;;;18.90;;
23506;SDS011;11930;53.076;18.250;2022-09-09T07:53:01;35.43;;;17.90;;
23506;SDS011;11930;53.076;18.250;2022-09-09T07:55:28;36.92;;;17.90;;
23506;SDS011;11930;53.076;18.250;2022-09-09T07:57:56;73.82;;;35.28;;
23506;SDS011;11930;53.076;18.250;2022-09-09T08:00:22;37.63;;;18.52;;
23506;SDS011;11930;53.076;18.250;2022-09-09T08:02:53;37.87;;;18.70;;
23506;SDS011;11930;53.076;18.250;2022-09-09T08:05:20;45.40;;;21.10;;
23506;SDS011;11930;53.076;18.250;2022-09-09T08:07:48;36.83;;;18.42;;
23506;SDS011;11930;53.076;18.250;2022-09-09T08:10:35;39.97;;;18.63;;
23506;SDS011;11930;53.076;18.250;2022-09-09T08:13:01;35.70;;;18.58;;
23506;SDS011;11930;53.076;18.250;2022-09-09T08:15:27;35.97;;;18.67;;
23506;SDS011;11930;53.076;18.250;2022-09-09T08:17:57;35.05;;;18.45;;
23506;SDS011;11930;53.076;18.250;2022-09-09T08:20:23;37.40;;;18.67;;
23506;SDS011;11930;53.076;18.250;2022-09-09T08:22:50;37.05;;;19.75;;
23506;SDS011;11930;53.076;18.250;2022-09-09T08:25:17;44.00;;;18.98;;
23506;SDS011;11930;53.076;18.250;2022-09-09T08:27:43;39.22;;;18.02;;
23506;SDS011;11930;53.076;18.250;2022-09-09T08:30:09;39.50;;;19.55;;
23506;SDS011;11930;53.076;18.250;2022-09-09T08:32:36;35.33;;;19.30;;
23506;SDS011;11930;53.076;18.250;2022-09-09T08:35:02;39.28;;;20.30;;
23506;SDS011;11930;53.076;18.250;2022-09-09T08:37:29;38.95;;;19.60;;
23506;SDS011;11930;53.076;18.250;2022-09-09T08:39:58;34.95;;;19.52;;
23506;SDS011;11930;53.076;18.250;2022-09-09T08:42:27;33.58;;;19.10;;
23506;SDS011;11930;53.076;18.250;2022-09-09T08:55:51;38.47;;;19.95;;
23506;SDS011;11930;53.076;18.250;2022-09-09T08:58:51;39.15;;;20.27;;
23506;SDS011;11930;53.076;18.250;2022-09-09T09:04:22;40.90;;;21.23;;
23506;SDS011;11930;53.076;18.250;2022-09-09T09:12:57;41.08;;;20.77;;
23506;SDS011;11930;53.076;18.250;2022-09-09T09:15:26;39.33;;;20.55;;
23506;SDS011;11930;53.076;18.250;2022-09-09T09:18:03;37.35;;;20.80;;
23506;SDS011;11930;53.076;18.250;2022-09-09T09:23:43;41.95;;;21.55;;
23506;SDS011;11930;53.076;18.250;2022-09-09T09:26:18;42.03;;;22.88;;
23506;SDS011;11930;53.076;18.250;2022-09-09T09:28:45;41.30;;;22.20;;
23506;SDS011;11930;53.076;18.250;2022-09-09T09:31:15;43.67;;;21.67;;
23506;SDS011;11930;53.076;18.250;2022-09-09T09:33:50;39.55;;;21.27;;
23506;SDS011;11930;53.076;18.250;2022-09-09T09:36:23;38.20;;;21.90;;
23506;SDS011;11930;53.076;18.250;2022-09-09T09:39:23;45.03;;;21.98;;
23506;SDS011;11930;53.076;18.250;2022-09-09T09:41:51;42.03;;;21.65;;
23506;SDS011;11930;53.076;18.250;2022-09-09T09:44:29;43.60;;;23.00;;
23506;SDS011;11930;53.076;18.250;2022-09-09T09:47:08;42.78;;;21.85;;
23506;SDS011;11930;53.076;18.250;2022-09-09T09:49:39;41.50;;;23.27;;
23506;SDS011;11930;53.076;18.250;2022-09-09T09:52:22;50.58;;;23.67;;
23506;SDS011;11930;53.076;18.250;2022-09-09T09:54:50;42.67;;;23.42;;
23506;SDS011;11930;53.076;18.250;2022-09-09T09:57:22;43.58;;;23.02;;
23506;SDS011;11930;53.076;18.250;2022-09-09T10:00:00;44.70;;;22.23;;
23506;SDS011;11930;53.076;18.250;2022-09-09T10:02:41;43.80;;;22.77;;
23506;SDS011;11930;53.076;18.250;2022-09-09T10:05:17;45.75;;;23.95;;
23506;SDS011;11930;53.076;18.250;2022-09-09T10:10:48;41.33;;;22.55;;
23506;SDS011;11930;53.076;18.250;2022-09-09T10:19:02;41.50;;;23.67;;
23506;SDS011;11930;53.076;18.250;2022-09-09T10:30:12;37.58;;;20.92;;
23506;SDS011;11930;53.076;18.250;2022-09-09T10:36:11;40.35;;;21.70;;
23506;SDS011;11930;53.076;18.250;2022-09-09T10:38:47;36.00;;;19.27;;
23506;SDS011;11930;53.076;18.250;2022-09-09T10:41:24;38.80;;;20.58;;
23506;SDS011;11930;53.076;18.250;2022-09-09T10:52:37;34.72;;;19.23;;
23506;SDS011;11930;53.076;18.250;2022-09-09T10:55:25;38.40;;;21.55;;
23506;SDS011;11930;53.076;18.250;2022-09-09T10:58:02;31.50;;;19.50;;
23506;SDS011;11930;53.076;18.250;2022-09-09T11:00:38;40.50;;;21.77;;
23506;SDS011;11930;53.076;18.250;2022-09-09T11:03:09;37.33;;;20.90;;
23506;SDS011;11930;53.076;18.250;2022-09-09T11:06:02;33.00;;;20.42;;
23506;SDS011;11930;53.076;18.250;2022-09-09T11:08:36;34.50;;;20.15;;
23506;SDS011;11930;53.076;18.250;2022-09-09T11:21:53;34.00;;;19.73;;
23506;SDS011;11930;53.076;18.250;2022-09-09T11:24:24;36.22;;;19.23;;
23506;SDS011;11930;53.076;18.250;2022-09-09T11:27:06;33.75;;;19.05;;
23506;SDS011;11930;53.076;18.250;2022-09-09T11:32:42;29.33;;;18.40;;
23506;SDS011;11930;53.076;18.250;2022-09-09T11:40:56;30.38;;;17.42;;
23506;SDS011;11930;53.076;18.250;2022-09-09T11:43:26;26.60;;;15.95;;
23506;SDS011;11930;53.076;18.250;2022-09-09T11:45:55;23.85;;;15.52;;
23506;SDS011;11930;53.076;18.250;2022-09-09T11:48:35;28.58;;;18.38;;
23506;SDS011;11930;53.076;18.250;2022-09-09T11:51:33;27.08;;;18.00;;
23506;SDS011;11930;53.076;18.250;2022-09-09T11:53:59;29.98;;;17.98;;
23506;SDS011;11930;53.076;18.250;2022-09-09T11:56:32;29.42;;;20.20;;
23506;SDS011;11930;53.076;18.250;2022-09-09T11:59:04;31.40;;;19.08;;
23506;SDS011;11930;53.076;18.250;2022-09-09T12:06:54;28.40;;;18.08;;
23506;SDS011;11930;53.076;18.250;2022-09-09T12:11:52;33.08;;;18.55;;
23506;SDS011;11930;53.076;18.250;2022-09-09T12:17:26;29.27;;;17.70;;
23506;SDS011;11930;53.076;18.250;2022-09-09T12:22:36;31.48;;;19.63;;
23506;SDS011;11930;53.076;18.250;2022-09-09T12:25:18;28.40;;;17.25;;
23506;SDS011;11930;53.076;18.250;2022-09-09T12:33:22;29.08;;;17.83;;
23506;SDS011;11930;53.076;18.250;2022-09-09T12:35:55;27.52;;;17.80;;
23506;SDS011;11930;53.076;18.250;2022-09-09T12:38:31;27.75;;;18.20;;
23506;SDS011;11930;53.076;18.250;2022-09-09T12:41:01;29.70;;;16.55;;
23506;SDS011;11930;53.076;18.250;2022-09-09T12:43:28;27.70;;;16.67;;
23506;SDS011;11930;53.076;18.250;2022-09-09T12:45:56;24.02;;;15.90;;
23506;SDS011;11930;53.076;18.250;2022-09-09T12:48:28;25.65;;;15.55;;
23506;SDS011;11930;53.076;18.250;2022-09-09T12:50:58;27.77;;;16.45;;
23506;SDS011;11930;53.076;18.250;2022-09-09T12:53:29;26.00;;;16.48;;
23506;SDS011;11930;53.076;18.250;2022-09-09T12:56:01;24.42;;;16.38;;
23506;SDS011;11930;53.076;18.250;2022-09-09T12:58:30;26.50;;;16.52;;
23506;SDS011;11930;53.076;18.250;2022-09-09T13:01:00;24.33;;;15.52;;
23506;SDS011;11930;53.076;18.250;2022-09-09T13:03:31;23.58;;;15.43;;
23506;SDS011;11930;53.076;18.250;2022-09-09T13:06:09;24.00;;;16.15;;
23506;SDS011;11930;53.076;18.250;2022-09-09T13:08:37;25.35;;;15.60;;
23506;SDS011;11930;53.076;18.250;2022-09-09T13:11:06;22.52;;;14.70;;
23506;SDS011;11930;53.076;18.250;2022-09-09T13:13:36;21.73;;;15.45;;
23506;SDS011;11930;53.076;18.250;2022-09-09T13:16:05;25.42;;;16.23;;
23506;SDS011;11930;53.076;18.250;2022-09-09T13:18:42;18.38;;;13.00;;
23506;SDS011;11930;53.076;18.250;2022-09-09T13:21:09;23.13;;;13.73;;
23506;SDS011;11930;53.076;18.250;2022-09-09T13:23:36;19.58;;;13.52;;
23506;SDS011;11930;53.076;18.250;2022-09-09T13:26:07;19.85;;;13.23;;
23506;SDS011;11930;53.076;18.250;2022-09-09T13:28:50;19.48;;;13.27;;
23506;SDS011;11930;53.076;18.250;2022-09-09T13:31:20;20.85;;;13.00;;
23506;SDS011;11930;53.076;18.250;2022-09-09T13:33:53;18.60;;;12.93;;
23506;SDS011;11930;53.076;18.250;2022-09-09T13:36:27;19.02;;;12.98;;
23506;SDS011;11930;53.076;18.250;2022-09-09T13:38:56;19.35;;;13.18;;
23506;SDS011;11930;53.076;18.250;2022-09-09T13:41:29;23.73;;;13.73;;
23506;SDS011;11930;53.076;18.250;2022-09-09T13:44:00;17.83;;;12.77;;
23506;SDS011;11930;53.076;18.250;2022-09-09T13:49:02;19.73;;;13.80;;
23506;SDS011;11930;53.076;18.250;2022-09-09T13:51:49;22.10;;;14.13;;
23506;SDS011;11930;53.076;18.250;2022-09-09T13:54:18;25.48;;;14.98;;
23506;SDS011;11930;53.076;18.250;2022-09-09T13:56:45;19.77;;;13.57;;
23506;SDS011;11930;53.076;18.250;2022-09-09T13:59:16;21.40;;;13.63;;
23506;SDS011;11930;53.076;18.250;2022-09-09T14:01:45;20.70;;;13.65;;
23506;SDS011;11930;53.076;18.250;2022-09-09T14:04:12;18.63;;;13.27;;
23506;SDS011;11930;53.076;18.250;2022-09-09T14:06:38;22.27;;;13.60;;
23506;SDS011;11930;53.076;18.250;2022-09-09T14:09:05;19.98;;;13.52;;
23506;SDS011;11930;53.076;18.250;2022-09-09T14:11:32;19.83;;;12.80;;
23506;SDS011;11930;53.076;18.250;2022-09-09T14:13:58;19.83;;;13.32;;
23506;SDS011;11930;53.076;18.250;2022-09-09T14:16:27;19.58;;;13.05;;
23506;SDS011;11930;53.076;18.250;2022-09-09T14:18:54;20.77;;;14.13;;
23506;SDS011;11930;53.076;18.250;2022-09-09T14:21:22;20.75;;;13.02;;
23506;SDS011;11930;53.076;18.250;2022-09-09T14:23:48;22.35;;;14.35;;
23506;SDS011;11930;53.076;18.250;2022-09-09T14:26:14;17.92;;;13.00;;
23506;SDS011;11930;53.076;18.250;2022-09-09T14:28:40;19.98;;;13.35;;
23506;SDS011;11930;53.076;18.250;2022-09-09T14:31:07;20.83;;;13.80;;
23506;SDS011;11930;53.076;18.250;2022-09-09T14:33:33;20.88;;;12.85;;
23506;SDS011;11930;53.076;18.250;2022-09-09T14:36:01;19.63;;;13.32;;
23506;SDS011;11930;53.076;18.250;2022-09-09T14:38:29;22.02;;;14.05;;
23506;SDS011;11930;53.076;18.250;2022-09-09T14:41:04;21.83;;;13.68;;
23506;SDS011;11930;53.076;18.250;2022-09-09T14:43:42;18.63;;;13.15;;
23506;SDS011;11930;53.076;18.250;2022-09-09T14:46:12;21.25;;;12.90;;
23506;SDS011;11930;53.076;18.250;2022-09-09T14:48:40;20.55;;;13.75;;
23506;SDS011;11930;53.076;18.250;2022-09-09T14:51:10;24.38;;;14.15;;
23506;SDS011;11930;53.076;18.250;2022-09-09T14:53:38;23.73;;;15.18;;
23506;SDS011;11930;53.076;18.250;2022-09-09T14:56:09;20.10;;;13.50;;
23506;SDS011;11930;53.076;18.250;2022-09-09T14:58:37;18.45;;;12.77;;
23506;SDS011;11930;53.076;18.250;2022-09-09T15:01:04;19.02;;;13.95;;
23506;SDS011;11930;53.076;18.250;2022-09-09T15:03:32;21.88;;;13.35;;
23506;SDS011;11930;53.076;18.250;2022-09-09T15:06:04;19.67;;;13.35;;
23506;SDS011;11930;53.076;18.250;2022-09-09T15:08:31;23.85;;;13.93;;
23506;SDS011;11930;53.076;18.250;2022-09-09T15:11:04;24.85;;;15.07;;
23506;SDS011;11930;53.076;18.250;2022-09-09T15:13:35;20.73;;;14.30;;
23506;SDS011;11930;53.076;18.250;2022-09-09T15:16:04;22.63;;;14.05;;
23506;SDS011;11930;53.076;18.250;2022-09-09T15:18:31;19.77;;;14.00;;
23506;SDS011;11930;53.076;18.250;2022-09-09T15:20:59;22.13;;;14.77;;
23506;SDS011;11930;53.076;18.250;2022-09-09T15:23:28;22.60;;;14.77;;
23506;SDS011;11930;53.076;18.250;2022-09-09T15:25:56;24.25;;;14.77;;
23506;SDS011;11930;53.076;18.250;2022-09-09T15:28:22;20.42;;;14.43;;
23506;SDS011;11930;53.076;18.250;2022-09-09T15:30:49;24.80;;;14.27;;
23506;SDS011;11930;53.076;18.250;2022-09-09T15:33:21;23.75;;;15.13;;
23506;SDS011;11930;53.076;18.250;2022-09-09T15:35:53;23.17;;;14.45;;
23506;SDS011;11930;53.076;18.250;2022-09-09T15:38:19;22.15;;;14.25;;
23506;SDS011;11930;53.076;18.250;2022-09-09T15:40:45;22.40;;;14.73;;
23506;SDS011;11930;53.076;18.250;2022-09-09T15:43:19;23.23;;;15.25;;
23506;SDS011;11930;53.076;18.250;2022-09-09T15:45:46;22.98;;;15.27;;
23506;SDS011;11930;53.076;18.250;2022-09-09T15:48:19;23.85;;;14.80;;
23506;SDS011;11930;53.076;18.250;2022-09-09T15:50:47;25.92;;;17.05;;
23506;SDS011;11930;53.076;18.250;2022-09-09T15:53:19;23.52;;;15.07;;
23506;SDS011;11930;53.076;18.250;2022-09-09T15:55:45;24.35;;;14.65;;
23506;SDS011;11930;53.076;18.250;2022-09-09T15:58:11;23.50;;;14.73;;
23506;SDS011;11930;53.076;18.250;2022-09-09T16:00:37;24.58;;;15.32;;
23506;SDS011;11930;53.076;18.250;2022-09-09T16:03:03;23.27;;;15.10;;
23506;SDS011;11930;53.076;18.250;2022-09-09T16:05:29;23.50;;;14.75;;
23506;SDS011;11930;53.076;18.250;2022-09-09T16:07:55;25.42;;;15.07;;
23506;SDS011;11930;53.076;18.250;2022-09-09T16:10:22;23.02;;;14.75;;
23506;SDS011;11930;53.076;18.250;2022-09-09T16:12:48;25.90;;;14.70;;
23506;SDS011;11930;53.076;18.250;2022-09-09T16:15:14;23.90;;;15.02;;
23506;SDS011;11930;53.076;18.250;2022-09-09T16:17:40;24.13;;;14.93;;
23506;SDS011;11930;53.076;18.250;2022-09-09T16:20:07;25.20;;;14.60;;
23506;SDS011;11930;53.076;18.250;2022-09-09T16:22:33;26.95;;;16.02;;
23506;SDS011;11930;53.076;18.250;2022-09-09T16:24:59;23.63;;;14.68;;
23506;SDS011;11930;53.076;18.250;2022-09-09T16:27:25;25.98;;;16.35;;
23506;SDS011;11930;53.076;18.250;2022-09-09T16:29:51;24.70;;;15.88;;
23506;SDS011;11930;53.076;18.250;2022-09-09T16:32:18;26.02;;;15.63;;
23506;SDS011;11930;53.076;18.250;2022-09-09T16:34:45;26.63;;;15.98;;
23506;SDS011;11930;53.076;18.250;2022-09-09T16:37:11;26.20;;;16.10;;
23506;SDS011;11930;53.076;18.250;2022-09-09T16:39:43;23.65;;;15.75;;
23506;SDS011;11930;53.076;18.250;2022-09-09T16:42:09;26.00;;;16.85;;
23506;SDS011;11930;53.076;18.250;2022-09-09T16:44:35;28.55;;;17.35;;
23506;SDS011;11930;53.076;18.250;2022-09-09T16:47:01;27.30;;;16.35;;
23506;SDS011;11930;53.076;18.250;2022-09-09T16:49:29;25.83;;;17.98;;